Time;durP1;ratioP1;P1;durP2;ratioP2;P2;SDS_P1;SDS_P2;PMS_P1;PMS_P2;Temp;Humidity;BMP_temperature;BMP_pressure;BME280_temperature;BME280_humidity;BME280_pressure;Samples;Min_cycle;Max_cycle;Signal;HPM_P1;HPM_P2
2024/03/29 00:00:58;;;;;;;4.00;1.63;;;;;;;;;;5095999;28;20056;-74
2024/03/29 00:03:24;;;;;;;2.37;1.77;;;;;;;;;;5095959;28;20020;-76
2024/03/29 00:05:50;;;;;;;3.13;1.60;;;;;;;;;;5096658;28;20081;-74
2024/03/29 00:08:16;;;;;;;4.57;2.20;;;;;;;;;;5078297;28;20422;-75
2024/03/29 00:10:46;;;;;;;3.10;1.50;;;;;;;;;;5061579;28;20115;-75
2024/03/29 00:13:12;;;;;;;3.83;1.50;;;;;;;;;;5095559;28;20028;-74
2024/03/29 00:15:38;;;;;;;2.73;1.50;;;;;;;;;;5079290;28;20493;-73
2024/03/29 00:18:11;;;;;;;3.57;1.60;;;;;;;;;;5097547;28;20434;-74
2024/03/29 00:20:38;;;;;;;1.42;1.30;;;;;;;;;;5097679;28;20028;-75
2024/03/29 00:23:04;;;;;;;3.07;1.50;;;;;;;;;;5062568;28;20580;-74
2024/03/29 00:25:32;;;;;;;3.20;1.50;;;;;;;;;;5079358;28;20065;-75
2024/03/29 00:27:58;;;;;;;5.60;2.37;;;;;;;;;;5096939;28;20085;-75
2024/03/29 00:30:24;;;;;;;3.17;1.80;;;;;;;;;;5078470;28;20467;-74
2024/03/29 00:32:50;;;;;;;3.23;1.53;;;;;;;;;;5078412;28;20048;-73
2024/03/29 00:35:16;;;;;;;2.20;1.67;;;;;;;;;;5096275;28;20028;-73
2024/03/29 00:37:42;;;;;;;3.20;1.60;;;;;;;;;;5096235;28;20416;-73
2024/03/29 00:40:10;;;;;;;4.97;1.97;;;;;;;;;;5077554;28;20475;-75
2024/03/29 00:42:36;;;;;;;4.87;1.87;;;;;;;;;;5097509;28;20456;-74
2024/03/29 00:45:03;;;;;;;2.57;1.37;;;;;;;;;;5098219;28;20024;-74
2024/03/29 00:47:29;;;;;;;2.50;1.43;;;;;;;;;;5097759;28;20024;-72
2024/03/29 00:49:55;;;;;;;3.17;1.80;;;;;;;;;;5097059;28;20127;-75
2024/03/29 00:52:23;;;;;;;5.60;1.97;;;;;;;;;;5077962;28;20016;-74
2024/03/29 00:54:50;;;;;;;7.03;2.30;;;;;;;;;;5077409;28;20104;-73
2024/03/29 00:57:16;;;;;;;2.17;1.60;;;;;;;;;;5077625;28;20446;-73
2024/03/29 00:59:44;;;;;;;3.40;1.60;;;;;;;;;;5078011;28;20027;-74
2024/03/29 01:02:10;;;;;;;4.20;2.13;;;;;;;;;;5095155;28;20031;-75
2024/03/29 01:04:38;;;;;;;2.43;1.90;;;;;;;;;;5077648;28;20356;-75
2024/03/29 01:07:04;;;;;;;2.17;1.93;;;;;;;;;;5077549;28;20105;-75
2024/03/29 01:09:34;;;;;;;2.20;1.43;;;;;;;;;;5076897;28;20448;-75
2024/03/29 01:12:00;;;;;;;4.77;1.57;;;;;;;;;;5077466;28;20087;-74
2024/03/29 01:14:26;;;;;;;2.33;1.53;;;;;;;;;;5078034;28;20024;-71
2024/03/29 01:16:53;;;;;;;2.00;1.30;;;;;;;;;;5079277;28;20455;-75
2024/03/29 01:19:19;;;;;;;2.13;1.30;;;;;;;;;;5079491;28;20533;-74
2024/03/29 01:21:45;;;;;;;2.00;1.30;;;;;;;;;;5079936;28;20024;-72
2024/03/29 01:24:13;;;;;;;3.50;1.73;;;;;;;;;;5099584;28;20055;-74
2024/03/29 01:26:39;;;;;;;1.50;1.30;;;;;;;;;;5100198;28;20043;-74
2024/03/29 01:29:08;;;;;;;2.73;1.57;;;;;;;;;;5078938;28;20202;-75
2024/03/29 01:31:35;;;;;;;3.83;1.40;;;;;;;;;;5077701;28;20028;-74
2024/03/29 01:34:02;;;;;;;2.97;1.77;;;;;;;;;;5077362;28;20404;-74
2024/03/29 01:36:31;;;;;;;2.83;1.27;;;;;;;;;;5077529;28;20054;-73
2024/03/29 01:39:00;;;;;;;2.73;1.40;;;;;;;;;;5079542;28;20125;-73
2024/03/29 01:41:29;;;;;;;1.97;1.60;;;;;;;;;;5076939;28;20146;-72
2024/03/29 01:43:59;;;;;;;3.03;2.27;;;;;;;;;;5076814;28;20426;-74
2024/03/29 01:46:26;;;;;;;2.97;1.33;;;;;;;;;;5075251;28;20542;-74
2024/03/29 01:48:53;;;;;;;2.90;1.83;;;;;;;;;;5092147;28;20414;-73
2024/03/29 01:51:23;;;;;;;3.27;1.90;;;;;;;;;;5073681;28;20066;-74
2024/03/29 01:53:53;;;;;;;4.57;2.00;;;;;;;;;;5073973;28;20024;-72
2024/03/29 01:56:22;;;;;;;3.63;2.00;;;;;;;;;;5074073;28;20119;-74
2024/03/29 01:58:53;;;;;;;4.00;1.97;;;;;;;;;;5092116;28;20508;-75
2024/03/29 02:01:20;;;;;;;6.63;2.33;;;;;;;;;;5073598;28;20388;-75
2024/03/29 02:03:47;;;;;;;3.40;1.60;;;;;;;;;;5073942;28;20476;-72
2024/03/29 02:06:15;;;;;;;3.90;1.77;;;;;;;;;;5091667;28;20031;-73
2024/03/29 02:08:41;;;;;;;2.57;1.70;;;;;;;;;;5073531;28;20035;-76
2024/03/29 02:11:08;;;;;;;1.57;1.20;;;;;;;;;;5072950;28;20780;-72
2024/03/29 02:13:36;;;;;;;4.60;1.73;;;;;;;;;;5073937;28;20425;-74
2024/03/29 02:16:02;;;;;;;5.87;2.03;;;;;;;;;;5092130;28;20031;-74
2024/03/29 02:18:29;;;;;;;3.90;2.20;;;;;;;;;;5092373;28;20038;-73
2024/03/29 02:20:55;;;;;;;3.80;2.07;;;;;;;;;;5074202;28;20609;-75
2024/03/29 02:23:28;;;;;;;3.43;2.17;;;;;;;;;;5074010;28;20020;-73
2024/03/29 02:25:53;;;;;;;;;;;;;;;;;;5074736;28;20032;-76
2024/03/29 02:28:22;;;;;;;3.03;1.50;;;;;;;;;;5075133;28;20002;-75
2024/03/29 02:30:49;;;;;;;2.83;1.50;;;;;;;;;;5092784;28;20157;-75
2024/03/29 02:33:15;;;;;;;2.67;1.93;;;;;;;;;;5076178;28;20101;-74
2024/03/29 02:35:42;;;;;;;2.47;1.50;;;;;;;;;;5075695;28;20024;-74
2024/03/29 02:38:08;;;;;;;1.90;1.67;;;;;;;;;;5075602;28;20507;-73
2024/03/29 02:40:34;;;;;;;3.93;2.43;;;;;;;;;;5076478;28;20355;-74
2024/03/29 02:43:01;;;;;;;4.10;2.20;;;;;;;;;;5094512;28;20024;-76
2024/03/29 02:45:27;;;;;;;4.07;1.73;;;;;;;;;;5094770;28;20031;-74
2024/03/29 02:47:53;;;;;;;4.70;2.07;;;;;;;;;;5077449;28;20026;-75
2024/03/29 02:50:21;;;;;;;3.80;1.83;;;;;;;;;;5077321;28;20024;-76
2024/03/29 02:52:47;;;;;;;2.20;1.80;;;;;;;;;;5077417;28;20544;-76
2024/03/29 02:55:14;;;;;;;2.33;1.90;;;;;;;;;;5077514;28;20032;-75
2024/03/29 02:57:41;;;;;;;4.83;2.30;;;;;;;;;;5077128;28;20043;-73
2024/03/29 03:00:11;;;;;;;3.43;2.23;;;;;;;;;;5094230;28;20031;-74
2024/03/29 03:02:40;;;;;;;3.63;1.70;;;;;;;;;;5076437;28;20024;-73
2024/03/29 03:05:07;;;;;;;3.60;1.90;;;;;;;;;;5076578;28;20024;-74
2024/03/29 03:13:05;;;;;;;4.70;2.13;;;;;;;;;;5096608;28;20058;-74
2024/03/29 03:15:33;;;;;;;3.93;2.03;;;;;;;;;;5078330;28;20020;-74
2024/03/29 03:17:59;;;;;;;2.13;1.67;;;;;;;;;;5095793;28;20020;-76
2024/03/29 03:20:30;;;;;;;3.67;1.80;;;;;;;;;;5077377;28;20116;-74
2024/03/29 03:22:57;;;;;;;5.13;2.35;;;;;;;;;;5077483;28;20488;-75
2024/03/29 03:25:24;;;;;;;3.97;2.33;;;;;;;;;;5094269;28;20047;-75
2024/03/29 03:27:51;;;;;;;2.73;2.00;;;;;;;;;;5094664;28;20085;-74
2024/03/29 03:30:22;;;;;;;2.50;2.00;;;;;;;;;;5094088;28;20070;-75
2024/03/29 03:32:49;;;;;;;4.93;2.00;;;;;;;;;;5075927;28;20119;-73
2024/03/29 03:35:15;;;;;;;4.00;2.13;;;;;;;;;;5058583;28;20031;-74
2024/03/29 03:37:41;;;;;;;4.23;1.97;;;;;;;;;;5075037;28;20024;-73
2024/03/29 03:40:08;;;;;;;2.20;1.87;;;;;;;;;;5074318;28;20443;-73
2024/03/29 03:42:34;;;;;;;5.27;2.53;;;;;;;;;;5092614;28;20476;-72
2024/03/29 03:45:03;;;;;;;3.33;1.60;;;;;;;;;;5058212;28;20034;-74
2024/03/29 03:47:30;;;;;;;2.80;1.73;;;;;;;;;;5093237;28;20024;-73
2024/03/29 03:49:57;;;;;;;4.77;2.07;;;;;;;;;;5074557;28;20054;-75
2024/03/29 03:52:27;;;;;;;4.07;2.30;;;;;;;;;;5092185;28;20050;-75
2024/03/29 03:54:53;;;;;;;4.23;2.50;;;;;;;;;;5092808;28;20051;-74
2024/03/29 03:57:20;;;;;;;4.00;1.97;;;;;;;;;;5092381;28;20116;-74
2024/03/29 03:59:49;;;;;;;5.03;2.20;;;;;;;;;;5092723;28;20024;-75
2024/03/29 04:02:14;;;;;;;2.40;1.80;;;;;;;;;;5073817;28;20027;-74
2024/03/29 04:04:41;;;;;;;6.23;1.90;;;;;;;;;;5075352;28;20395;-74
2024/03/29 04:07:07;;;;;;;4.20;1.70;;;;;;;;;;5077575;28;20023;-74
2024/03/29 04:09:33;;;;;;;2.50;1.83;;;;;;;;;;5077393;28;20031;-75
2024/03/29 04:11:59;;;;;;;3.10;1.77;;;;;;;;;;5077075;28;20476;-76
2024/03/29 04:14:25;;;;;;;3.13;1.70;;;;;;;;;;5094866;28;20032;-76
2024/03/29 04:16:52;;;;;;;2.80;2.00;;;;;;;;;;5095855;28;20028;-74
2024/03/29 04:19:18;;;;;;;5.33;2.60;;;;;;;;;;5094798;28;20016;-74
2024/03/29 04:21:44;;;;;;;2.90;1.97;;;;;;;;;;5076864;28;20383;-75
2024/03/29 04:24:10;;;;;;;3.30;2.07;;;;;;;;;;5076914;28;20111;-75
2024/03/29 04:26:38;;;;;;;3.47;2.17;;;;;;;;;;5076652;28;20028;-74
2024/03/29 04:29:05;;;;;;;6.60;2.70;;;;;;;;;;5076463;28;20024;-73
2024/03/29 04:31:32;;;;;;;5.10;1.80;;;;;;;;;;5043482;28;20069;-74
2024/03/29 04:33:58;;;;;;;2.20;1.80;;;;;;;;;;5059687;28;20101;-74
2024/03/29 04:36:24;;;;;;;3.13;2.00;;;;;;;;;;5094443;28;20035;-73
2024/03/29 04:38:50;;;;;;;4.47;1.93;;;;;;;;;;5076925;28;20105;-75
2024/03/29 04:41:17;;;;;;;3.13;1.80;;;;;;;;;;5094936;28;20588;-73
2024/03/29 04:43:44;;;;;;;4.93;2.10;;;;;;;;;;5094725;28;20051;-74
2024/03/29 04:46:12;;;;;;;4.27;1.77;;;;;;;;;;5094582;28;20051;-74
2024/03/29 04:48:41;;;;;;;3.17;1.77;;;;;;;;;;5076826;28;20057;-75
2024/03/29 04:51:07;;;;;;;4.33;1.50;;;;;;;;;;5092977;28;20093;-73
2024/03/29 04:53:35;;;;;;;4.80;1.70;;;;;;;;;;5075949;28;20036;-72
2024/03/29 04:56:02;;;;;;;3.77;1.67;;;;;;;;;;5092828;28;20207;-76
2024/03/29 04:58:29;;;;;;;5.53;1.93;;;;;;;;;;5075133;28;20514;-76
2024/03/29 05:00:55;;;;;;;2.93;1.83;;;;;;;;;;5094048;28;20024;-74
2024/03/29 05:03:22;;;;;;;4.33;1.80;;;;;;;;;;5075922;28;20030;-71
2024/03/29 05:05:50;;;;;;;2.33;1.93;;;;;;;;;;5060186;28;20032;-74
2024/03/29 05:08:19;;;;;;;11.57;2.47;;;;;;;;;;5076281;28;20024;-73
2024/03/29 05:10:46;;;;;;;2.60;2.03;;;;;;;;;;5075454;28;20051;-74
2024/03/29 05:13:12;;;;;;;3.57;2.40;;;;;;;;;;5074634;28;20024;-74
2024/03/29 05:15:38;;;;;;;3.80;1.53;;;;;;;;;;5074753;28;20024;-73
2024/03/29 05:18:04;;;;;;;5.37;2.27;;;;;;;;;;5093118;28;20058;-73
2024/03/29 05:20:31;;;;;;;4.77;2.10;;;;;;;;;;5075582;28;20027;-74
2024/03/29 05:23:00;;;;;;;2.80;1.93;;;;;;;;;;5077177;28;20027;-73
2024/03/29 05:25:27;;;;;;;2.17;1.73;;;;;;;;;;5097296;28;20027;-73
2024/03/29 05:27:53;;;;;;;2.70;2.10;;;;;;;;;;5079828;28;20031;-73
2024/03/29 05:30:20;;;;;;;2.70;1.50;;;;;;;;;;5079611;28;20028;-76
2024/03/29 05:32:46;;;;;;;2.03;1.80;;;;;;;;;;5098410;28;20028;-74
2024/03/29 05:35:13;;;;;;;2.90;2.07;;;;;;;;;;5079859;28;20043;-73
2024/03/29 05:37:40;;;;;;;2.60;1.80;;;;;;;;;;5075947;28;20028;-73
2024/03/29 05:40:09;;;;;;;7.33;4.20;;;;;;;;;;5074673;28;20028;-73
2024/03/29 05:42:36;;;;;;;3.57;2.33;;;;;;;;;;5093272;28;20511;-75
2024/03/29 05:45:22;;;;;;;5.53;2.17;;;;;;;;;;5076025;28;20072;-75
2024/03/29 05:47:52;;;;;;;3.27;1.77;;;;;;;;;;5076090;28;20102;-73
2024/03/29 05:50:19;;;;;;;7.37;2.17;;;;;;;;;;5094237;28;20020;-75
2024/03/29 05:52:45;;;;;;;5.20;1.87;;;;;;;;;;5076408;28;20024;-75
2024/03/29 05:55:12;;;;;;;3.87;2.00;;;;;;;;;;5095285;28;20028;-74
2024/03/29 05:57:41;;;;;;;11.63;4.50;;;;;;;;;;5076262;28;20040;-77
2024/03/29 06:00:09;;;;;;;10.30;2.50;;;;;;;;;;5095183;28;20024;-75
2024/03/29 06:02:37;;;;;;;3.30;2.03;;;;;;;;;;5061007;28;20044;-73
2024/03/29 06:05:04;;;;;;;1.97;1.77;;;;;;;;;;5078689;28;20035;-75
2024/03/29 06:07:33;;;;;;;6.43;1.50;;;;;;;;;;5096436;28;20024;-74
2024/03/29 06:10:04;;;;;;;3.33;1.63;;;;;;;;;;5078295;28;20028;-74
2024/03/29 06:12:32;;;;;;;3.88;1.63;;;;;;;;;;5061713;28;20082;-74
2024/03/29 06:17:45;;;;;;;4.07;1.97;;;;;;;;;;5097350;28;20081;-73
2024/03/29 06:20:14;;;;;;;7.70;1.60;;;;;;;;;;5079633;28;20067;-76
2024/03/29 06:22:41;;;;;;;2.43;1.40;;;;;;;;;;5079191;28;20063;-75
2024/03/29 06:25:09;;;;;;;3.93;1.83;;;;;;;;;;5062839;28;20024;-75
2024/03/29 06:27:37;;;;;;;2.63;1.43;;;;;;;;;;5078099;28;20035;-75
2024/03/29 06:30:04;;;;;;;3.27;1.60;;;;;;;;;;5077763;28;20024;-75
2024/03/29 06:32:31;;;;;;;3.13;1.63;;;;;;;;;;5077145;28;20020;-77
2024/03/29 06:34:59;;;;;;;2.50;1.67;;;;;;;;;;5076429;28;20028;-75
2024/03/29 06:37:27;;;;;;;3.17;2.27;;;;;;;;;;5093908;28;20028;-74
2024/03/29 06:39:56;;;;;;;3.27;1.53;;;;;;;;;;5057903;28;20028;-71
2024/03/29 06:42:23;;;;;;;4.30;1.50;;;;;;;;;;5073191;28;20035;-69
2024/03/29 06:44:50;;;;;;;2.63;1.90;;;;;;;;;;5091497;28;20047;-73
2024/03/29 06:47:16;;;;;;;5.03;2.20;;;;;;;;;;5042218;28;20024;-68
2024/03/29 06:49:43;;;;;;;1.93;1.60;;;;;;;;;;5078096;28;20031;-72
2024/03/29 06:52:09;;;;;;;1.90;1.20;;;;;;;;;;5089865;28;20028;-73
2024/03/29 06:54:35;;;;;;;3.80;1.50;;;;;;;;;;5072016;28;20062;-69
2024/03/29 06:57:02;;;;;;;3.65;1.13;;;;;;;;;;5072292;28;20035;-72
2024/03/29 06:59:30;;;;;;;4.60;1.63;;;;;;;;;;5089864;28;20027;-68
2024/03/29 07:01:55;;;;;;;3.43;1.57;;;;;;;;;;5068604;28;20034;-70
2024/03/29 07:04:23;;;;;;;3.10;1.58;;;;;;;;;;5069408;28;20039;-72
2024/03/29 07:06:51;;;;;;;2.05;1.60;;;;;;;;;;5087806;28;20034;-69
2024/03/29 07:09:20;;;;;;;2.38;1.67;;;;;;;;;;5077194;28;20055;-70
2024/03/29 07:11:50;;;;;;;3.00;1.52;;;;;;;;;;5089937;28;20085;-68
2024/03/29 07:14:17;;;;;;;4.45;1.70;;;;;;;;;;5072613;28;20026;-69
2024/03/29 07:16:45;;;;;;;5.90;1.23;;;;;;;;;;5049049;28;20127;-69
2024/03/29 07:19:16;;;;;;;2.25;1.10;;;;;;;;;;5055637;28;20075;-72
2024/03/29 07:21:46;;;;;;;1.90;1.43;;;;;;;;;;5087970;28;20468;-68
2024/03/29 07:24:11;;;;;;;1.52;1.20;;;;;;;;;;5072391;28;20042;-71
2024/03/29 07:26:37;;;;;;;4.55;1.27;;;;;;;;;;5086732;28;20487;-68
2024/03/29 07:29:05;;;;;;;1.65;1.05;;;;;;;;;;5089087;28;20090;-71
2024/03/29 07:31:31;;;;;;;2.65;0.95;;;;;;;;;;5068972;28;20046;-70
2024/03/29 07:33:57;;;;;;;1.23;0.82;;;;;;;;;;5096815;28;20063;-69
2024/03/29 07:36:25;;;;;;;3.38;0.90;;;;;;;;;;5091242;28;20723;-73
2024/03/29 07:38:51;;;;;;;3.60;1.00;;;;;;;;;;5077212;28;20106;-70
2024/03/29 07:41:16;;;;;;;1.33;0.70;;;;;;;;;;5075071;28;20647;-69
2024/03/29 07:43:54;;;;;;;8.55;1.55;;;;;;;;;;5090254;28;20039;-70
2024/03/29 07:46:21;;;;;;;1.92;0.80;;;;;;;;;;5101467;28;20056;-72
2024/03/29 07:48:51;;;;;;;1.88;0.80;;;;;;;;;;5077014;28;20032;-68
2024/03/29 07:51:17;;;;;;;2.90;0.70;;;;;;;;;;5106000;28;20467;-69
2024/03/29 07:53:43;;;;;;;1.80;0.73;;;;;;;;;;5087554;28;20118;-70
2024/03/29 07:56:09;;;;;;;1.95;0.73;;;;;;;;;;5080287;28;20420;-71
2024/03/29 07:58:34;;;;;;;2.10;0.80;;;;;;;;;;5062513;28;20544;-70
2024/03/29 08:01:02;;;;;;;4.00;1.00;;;;;;;;;;5075538;28;20107;-72
2024/03/29 08:03:32;;;;;;;3.08;0.90;;;;;;;;;;5080966;28;20244;-71
2024/03/29 08:06:06;;;;;;;0.90;0.68;;;;;;;;;;5095823;28;20082;-70
2024/03/29 08:08:35;;;;;;;2.67;1.17;;;;;;;;;;5072754;28;20446;-70
2024/03/29 08:11:01;;;;;;;1.67;1.02;;;;;;;;;;5077431;28;20117;-68
2024/03/29 08:13:27;;;;;;;1.88;0.70;;;;;;;;;;5077191;28;20078;-69
2024/03/29 08:16:00;;;;;;;3.28;1.08;;;;;;;;;;5089641;28;20433;-69
2024/03/29 08:18:29;;;;;;;2.67;1.10;;;;;;;;;;5080926;28;20024;-68
2024/03/29 08:20:57;;;;;;;1.55;0.70;;;;;;;;;;5078864;28;20055;-70
2024/03/29 08:23:23;;;;;;;3.10;1.25;;;;;;;;;;5084242;28;20033;-69
2024/03/29 08:25:51;;;;;;;2.55;0.75;;;;;;;;;;5084075;28;20097;-70
2024/03/29 08:28:19;;;;;;;2.17;1.02;;;;;;;;;;5074955;28;20130;-71
2024/03/29 08:30:44;;;;;;;5.35;1.27;;;;;;;;;;5092568;28;20023;-70
2024/03/29 08:33:10;;;;;;;2.40;1.10;;;;;;;;;;5072072;28;20066;-70
2024/03/29 08:35:37;;;;;;;2.30;0.90;;;;;;;;;;5076045;28;20500;-69
2024/03/29 08:38:02;;;;;;;2.40;1.70;;;;;;;;;;5072152;28;20115;-71
2024/03/29 08:40:34;;;;;;;3.35;0.90;;;;;;;;;;5070960;28;20393;-69
2024/03/29 08:43:04;;;;;;;2.30;1.00;;;;;;;;;;5074186;28;20028;-72
2024/03/29 08:45:29;;;;;;;4.10;1.20;;;;;;;;;;5068292;28;20028;-70
2024/03/29 08:47:55;;;;;;;3.03;0.98;;;;;;;;;;5063659;28;20023;-73
2024/03/29 08:50:21;;;;;;;2.38;0.90;;;;;;;;;;5082829;28;20097;-69
2024/03/29 08:52:48;;;;;;;3.17;1.02;;;;;;;;;;5070680;28;20016;-68
2024/03/29 08:55:14;;;;;;;1.90;0.95;;;;;;;;;;5050183;28;20157;-70
2024/03/29 08:57:40;;;;;;;0.80;0.60;;;;;;;;;;5056353;28;20036;-69
2024/03/29 09:00:08;;;;;;;0.50;0.43;;;;;;;;;;5074050;28;20364;-69
2024/03/29 09:02:35;;;;;;;2.17;0.30;;;;;;;;;;5070698;28;20153;-73
2024/03/29 09:05:03;;;;;;;1.02;0.43;;;;;;;;;;5089006;28;20447;-69
2024/03/29 09:07:30;;;;;;;1.08;0.75;;;;;;;;;;5090692;28;20032;-75
2024/03/29 09:09:56;;;;;;;4.13;0.80;;;;;;;;;;5069523;28;20024;-69
2024/03/29 09:12:25;;;;;;;1.85;0.93;;;;;;;;;;5092297;28;20058;-71
2024/03/29 09:14:53;;;;;;;1.33;0.40;;;;;;;;;;5086863;28;20067;-71
2024/03/29 09:17:21;;;;;;;0.75;0.50;;;;;;;;;;5090002;28;20159;-72
2024/03/29 09:19:50;;;;;;;1.92;0.45;;;;;;;;;;5057972;28;20039;-73
2024/03/29 09:22:16;;;;;;;0.52;0.30;;;;;;;;;;5081054;28;20089;-71
2024/03/29 09:24:41;;;;;;;1.65;0.32;;;;;;;;;;5089913;28;20024;-70
2024/03/29 09:27:08;;;;;;;0.77;0.40;;;;;;;;;;5108464;28;20027;-71
2024/03/29 09:29:37;;;;;;;4.03;0.73;;;;;;;;;;5085002;28;20040;-69
2024/03/29 09:32:05;;;;;;;0.95;0.40;;;;;;;;;;5074185;28;20111;-71
2024/03/29 09:34:31;;;;;;;4.10;0.52;;;;;;;;;;5083319;28;20119;-70
2024/03/29 09:36:57;;;;;;;1.00;0.50;;;;;;;;;;5088234;28;20056;-73
2024/03/29 09:39:23;;;;;;;2.50;0.52;;;;;;;;;;5067053;28;20035;-73
2024/03/29 09:41:50;;;;;;;6.90;0.50;;;;;;;;;;5078270;28;20028;-70
2024/03/29 09:44:17;;;;;;;4.22;0.52;;;;;;;;;;5079760;28;20773;-71
2024/03/29 09:46:43;;;;;;;0.60;0.35;;;;;;;;;;5043180;28;20473;-70
2024/03/29 09:49:11;;;;;;;4.38;0.88;;;;;;;;;;5051795;28;20123;-70
2024/03/29 09:51:39;;;;;;;3.33;1.02;;;;;;;;;;5042316;28;20504;-69
2024/03/29 09:54:08;;;;;;;1.40;0.30;;;;;;;;;;5040393;28;20031;-71
2024/03/29 09:56:35;;;;;;;0.40;0.22;;;;;;;;;;5050711;28;20043;-69
2024/03/29 09:59:03;;;;;;;1.20;0.30;;;;;;;;;;5036159;28;20036;-69
2024/03/29 10:01:31;;;;;;;2.15;1.05;;;;;;;;;;5033663;28;20040;-72
2024/03/29 10:03:58;;;;;;;2.22;0.50;;;;;;;;;;5026557;28;20079;-69
2024/03/29 10:06:24;;;;;;;1.45;0.63;;;;;;;;;;5041059;28;20151;-69
2024/03/29 10:08:54;;;;;;;3.28;0.57;;;;;;;;;;5034867;28;20036;-71
2024/03/29 10:11:21;;;;;;;1.08;0.50;;;;;;;;;;5023687;28;20127;-68
2024/03/29 10:13:47;;;;;;;0.90;0.57;;;;;;;;;;5035604;28;20036;-69
2024/03/29 10:16:13;;;;;;;2.08;0.60;;;;;;;;;;5040096;28;20386;-70
2024/03/29 10:18:43;;;;;;;1.75;0.35;;;;;;;;;;5075096;28;20047;-70
2024/03/29 10:21:09;;;;;;;2.45;0.40;;;;;;;;;;5069310;28;20020;-69
2024/03/29 10:23:36;;;;;;;0.57;0.38;;;;;;;;;;5092513;28;20494;-69
2024/03/29 10:26:06;;;;;;;1.25;0.40;;;;;;;;;;5070877;28;20068;-72
2024/03/29 10:28:36;;;;;;;1.80;0.60;;;;;;;;;;5071960;28;20125;-71
2024/03/29 10:31:03;;;;;;;1.25;0.50;;;;;;;;;;5066725;28;20028;-68
2024/03/29 10:33:30;;;;;;;2.45;0.40;;;;;;;;;;5068151;28;20447;-68
2024/03/29 10:35:58;;;;;;;0.82;0.40;;;;;;;;;;5086897;28;20058;-70
2024/03/29 10:38:24;;;;;;;1.13;0.50;;;;;;;;;;5087075;28;20031;-70
2024/03/29 10:40:52;;;;;;;0.77;0.52;;;;;;;;;;5068025;28;20399;-69
2024/03/29 10:43:19;;;;;;;0.55;0.40;;;;;;;;;;5072677;28;20032;-71
2024/03/29 10:45:50;;;;;;;1.77;0.50;;;;;;;;;;5044535;28;20074;-69
2024/03/29 10:48:17;;;;;;;2.53;0.70;;;;;;;;;;5058784;28;20032;-70
2024/03/29 10:50:47;;;;;;;0.93;0.55;;;;;;;;;;5062328;28;20032;-69
2024/03/29 10:53:15;;;;;;;0.20;0.20;;;;;;;;;;5050938;28;20642;-69
2024/03/29 10:55:43;;;;;;;0.65;0.38;;;;;;;;;;5061285;28;20032;-71
2024/03/29 10:58:11;;;;;;;0.32;0.28;;;;;;;;;;5038167;28;20056;-71
2024/03/29 11:00:45;;;;;;;1.23;0.40;;;;;;;;;;5063030;28;20047;-70
2024/03/29 11:03:28;;;;;;;0.47;0.30;;;;;;;;;;5085755;28;20089;-72
2024/03/29 11:06:04;;;;;;;0.40;0.40;;;;;;;;;;5070223;28;20028;-70
2024/03/29 11:08:39;;;;;;;2.85;0.50;;;;;;;;;;5082217;28;20071;-70
2024/03/29 11:11:07;;;;;;;0.32;0.32;;;;;;;;;;5062385;28;20051;-69
2024/03/29 11:14:04;;;;;;;0.73;0.43;;;;;;;;;;5082920;28;20040;-69
2024/03/29 11:16:30;;;;;;;4.82;0.50;;;;;;;;;;5060705;28;20101;-69
2024/03/29 11:18:57;;;;;;;0.47;0.40;;;;;;;;;;5053289;28;20333;-71
2024/03/29 11:21:28;;;;;;;2.85;0.43;;;;;;;;;;5049370;28;20093;-72
2024/03/29 11:24:01;;;;;;;2.78;0.60;;;;;;;;;;5064946;28;20028;-71
2024/03/29 11:26:28;;;;;;;1.02;0.60;;;;;;;;;;5058561;28;20544;-70
2024/03/29 11:28:53;;;;;;;3.15;0.60;;;;;;;;;;5073871;28;20028;-69
2024/03/29 11:31:26;;;;;;;4.05;0.50;;;;;;;;;;5083568;28;20099;-69
2024/03/29 11:33:53;;;;;;;8.98;0.60;;;;;;;;;;5063823;28;20021;-70
2024/03/29 11:36:23;;;;;;;0.43;0.32;;;;;;;;;;5060241;28;20028;-70
2024/03/29 11:38:53;;;;;;;1.83;0.45;;;;;;;;;;5063523;28;20034;-73
2024/03/29 11:41:23;;;;;;;4.68;0.50;;;;;;;;;;5064828;28;20032;-69
2024/03/29 11:43:50;;;;;;;5.47;0.57;;;;;;;;;;5056294;28;20043;-69
2024/03/29 11:46:17;;;;;;;3.75;0.40;;;;;;;;;;5068827;28;20027;-69
2024/03/29 11:48:44;;;;;;;2.08;0.50;;;;;;;;;;5091835;28;20401;-71
2024/03/29 11:51:15;;;;;;;0.82;0.30;;;;;;;;;;5054966;28;20027;-70
2024/03/29 11:53:41;;;;;;;;;;;;;;;;;;5089939;28;20808;-68
2024/03/29 11:56:07;;;;;;;0.82;0.38;;;;;;;;;;5070679;28;19912;-71
2024/03/29 11:58:35;;;;;;;2.58;0.57;;;;;;;;;;5050025;28;20261;-71
2024/03/29 12:01:02;;;;;;;3.45;0.90;;;;;;;;;;5074997;28;20040;-70
2024/03/29 12:03:30;;;;;;;4.47;0.52;;;;;;;;;;5073870;28;20039;-70
2024/03/29 12:06:03;;;;;;;0.95;0.30;;;;;;;;;;5076259;28;20032;-69
2024/03/29 12:08:33;;;;;;;0.30;0.30;;;;;;;;;;5090565;28;20464;-70
2024/03/29 12:11:00;;;;;;;0.43;0.40;;;;;;;;;;5073331;28;20078;-70
2024/03/29 12:13:26;;;;;;;0.68;0.38;;;;;;;;;;5064153;28;20035;-70
2024/03/29 12:15:53;;;;;;;0.63;0.40;;;;;;;;;;5074746;28;20028;-70
2024/03/29 12:18:25;;;;;;;4.95;0.40;;;;;;;;;;5079875;28;20073;-69
2024/03/29 12:20:52;;;;;;;2.40;0.93;;;;;;;;;;5072074;28;20050;-69
2024/03/29 12:23:22;;;;;;;0.82;0.30;;;;;;;;;;5072704;28;20573;-70
2024/03/29 12:25:49;;;;;;;4.72;0.65;;;;;;;;;;5076593;28;20041;-68
2024/03/29 12:28:16;;;;;;;0.90;0.50;;;;;;;;;;5057995;28;20068;-69
2024/03/29 12:30:48;;;;;;;1.27;0.68;;;;;;;;;;5082202;28;20542;-71
2024/03/29 12:33:16;;;;;;;2.03;0.50;;;;;;;;;;5080298;28;20503;-69
2024/03/29 12:35:49;;;;;;;1.40;0.73;;;;;;;;;;5064179;28;20306;-69
2024/03/29 12:38:17;;;;;;;0.70;0.55;;;;;;;;;;5071300;28;20035;-70
2024/03/29 12:40:49;;;;;;;1.45;0.63;;;;;;;;;;5052108;28;20909;-72
2024/03/29 12:43:23;;;;;;;3.08;0.40;;;;;;;;;;5063681;28;20055;-72
2024/03/29 12:45:51;;;;;;;4.28;0.68;;;;;;;;;;5088437;28;20376;-72
2024/03/29 12:48:20;;;;;;;2.20;0.50;;;;;;;;;;5082722;28;20020;-72
2024/03/29 12:50:49;;;;;;;1.85;1.08;;;;;;;;;;5074901;28;20047;-70
2024/03/29 12:53:16;;;;;;;0.85;0.40;;;;;;;;;;5090258;28;20419;-70
2024/03/29 12:55:47;;;;;;;1.60;0.50;;;;;;;;;;5062128;28;20036;-69
2024/03/29 12:58:16;;;;;;;1.00;0.90;;;;;;;;;;5072602;28;20106;-70
2024/03/29 13:00:41;;;;;;;0.82;0.52;;;;;;;;;;5081374;28;20024;-70
2024/03/29 13:03:08;;;;;;;1.20;0.65;;;;;;;;;;5077362;28;20039;-74
2024/03/29 13:05:42;;;;;;;1.80;0.40;;;;;;;;;;5067467;28;20024;-71
2024/03/29 13:08:10;;;;;;;2.70;0.45;;;;;;;;;;5069320;28;20145;-70
2024/03/29 13:10:37;;;;;;;1.13;0.32;;;;;;;;;;5061221;28;20595;-73
2024/03/29 13:13:05;;;;;;;2.60;0.50;;;;;;;;;;5082345;28;20248;-70
2024/03/29 13:15:33;;;;;;;1.02;0.50;;;;;;;;;;5079787;28;20569;-69
2024/03/29 13:18:00;;;;;;;1.80;0.40;;;;;;;;;;5066060;28;20365;-69
2024/03/29 13:20:26;;;;;;;0.47;0.28;;;;;;;;;;5068423;28;20038;-70
2024/03/29 13:22:54;;;;;;;2.60;0.43;;;;;;;;;;5081792;28;20124;-71
2024/03/29 13:25:21;;;;;;;1.48;0.52;;;;;;;;;;5081280;28;20589;-71
2024/03/29 13:27:54;;;;;;;0.85;0.50;;;;;;;;;;5071589;28;20028;-71
2024/03/29 13:30:28;;;;;;;0.95;0.63;;;;;;;;;;5071525;28;20126;-72
2024/03/29 13:32:58;;;;;;;1.38;0.47;;;;;;;;;;5090630;28;20027;-69
2024/03/29 13:35:24;;;;;;;2.53;0.60;;;;;;;;;;5048000;28;20055;-71
2024/03/29 13:37:55;;;;;;;1.30;0.63;;;;;;;;;;5088668;28;20032;-70
2024/03/29 13:40:32;;;;;;;1.67;0.50;;;;;;;;;;5090549;28;20024;-70
2024/03/29 13:42:58;;;;;;;1.73;0.25;;;;;;;;;;5088239;28;20035;-71
2024/03/29 13:45:27;;;;;;;1.42;0.52;;;;;;;;;;5089430;28;20043;-72
2024/03/29 13:47:55;;;;;;;2.13;0.85;;;;;;;;;;5073465;28;20020;-73
2024/03/29 13:50:24;;;;;;;1.33;0.60;;;;;;;;;;5090313;28;20028;-73
2024/03/29 13:52:51;;;;;;;3.95;0.52;;;;;;;;;;5071956;28;20082;-71
2024/03/29 13:55:25;;;;;;;0.95;0.50;;;;;;;;;;5070471;28;20472;-70
2024/03/29 13:57:54;;;;;;;0.95;0.60;;;;;;;;;;5090699;28;20034;-70
2024/03/29 14:00:21;;;;;;;2.97;0.77;;;;;;;;;;5072998;28;20472;-69
2024/03/29 14:02:47;;;;;;;1.30;0.30;;;;;;;;;;5094251;28;20027;-71
2024/03/29 14:05:13;;;;;;;0.90;0.60;;;;;;;;;;5071724;28;20131;-70
2024/03/29 14:07:39;;;;;;;1.40;0.60;;;;;;;;;;5054140;28;20021;-69
2024/03/29 14:10:13;;;;;;;1.33;0.50;;;;;;;;;;5071229;28;20012;-69
2024/03/29 14:12:44;;;;;;;1.90;0.50;;;;;;;;;;5069702;28;20078;-70
2024/03/29 14:15:11;;;;;;;0.85;0.50;;;;;;;;;;5068710;28;20027;-71
2024/03/29 14:17:37;;;;;;;3.08;1.20;;;;;;;;;;5088060;28;20054;-71
2024/03/29 14:20:03;;;;;;;4.75;1.20;;;;;;;;;;5081732;28;20047;-70
2024/03/29 14:22:31;;;;;;;0.82;0.50;;;;;;;;;;5072655;28;20027;-72
2024/03/29 14:24:57;;;;;;;1.38;0.50;;;;;;;;;;5077153;28;20020;-73
2024/03/29 14:27:24;;;;;;;1.50;0.73;;;;;;;;;;5089800;28;20046;-70
2024/03/29 14:29:50;;;;;;;1.05;0.38;;;;;;;;;;5090052;28;20097;-70
2024/03/29 14:32:16;;;;;;;0.90;0.50;;;;;;;;;;5075495;28;20051;-71
2024/03/29 14:34:46;;;;;;;1.38;1.13;;;;;;;;;;5071967;28;20024;-70
2024/03/29 14:37:15;;;;;;;2.10;0.80;;;;;;;;;;5088782;28;20514;-69
2024/03/29 14:39:45;;;;;;;1.58;0.60;;;;;;;;;;5066759;28;20104;-71
2024/03/29 14:42:13;;;;;;;1.27;0.30;;;;;;;;;;5062334;28;20106;-70
2024/03/29 14:44:39;;;;;;;0.60;0.60;;;;;;;;;;5058633;28;20473;-70
2024/03/29 14:47:05;;;;;;;4.72;0.63;;;;;;;;;;5080571;28;20119;-71
2024/03/29 14:49:38;;;;;;;0.52;0.40;;;;;;;;;;5085526;28;20047;-71
2024/03/29 14:52:08;;;;;;;2.60;0.50;;;;;;;;;;5087709;28;20043;-71
2024/03/29 14:54:34;;;;;;;2.55;0.70;;;;;;;;;;5083966;28;20697;-70